Terminal Aerodrome Forecast
Issued by NWS Sioux Falls, SD

Home | Current Version | Previous Version | Graphics & Text | Print | Product List | Glossary On
Versions: 1 2 3 4 5 6 7 8 9 10 11 12
521
FTUS43 KFSD 020528
TAFFSD
TAF
KFSD 020528Z 0206/0306 33003KT P6SM SKC
     FM021000 VRB03KT 4SM BR SKC
     FM021300 31006KT P6SM SCT250
     FM022000 27005KT P6SM SCT070 BKN200=

USA.gov is the U.S. government's official web portal to all federal, state and local government web resources and services.